sensor_id;sensor_type;location;lat;lon;timestamp;temperature;humidity
6244;DHT22;3155;49.940;8.450;2022-12-10T00:01:32;0.40;99.90
6244;DHT22;3155;49.940;8.450;2022-12-10T00:04:00;0.40;99.90
6244;DHT22;3155;49.940;8.450;2022-12-10T00:06:29;0.40;99.90
6244;DHT22;3155;49.940;8.450;2022-12-10T00:08:56;0.40;99.90
6244;DHT22;3155;49.940;8.450;2022-12-10T00:11:23;0.40;99.90
6244;DHT22;3155;49.940;8.450;2022-12-10T00:13:51;0.40;99.90
6244;DHT22;3155;49.940;8.450;2022-12-10T00:16:21;0.30;99.90
6244;DHT22;3155;49.940;8.450;2022-12-10T00:18:49;0.30;99.90
6244;DHT22;3155;49.940;8.450;2022-12-10T00:21:21;0.30;99.90
6244;DHT22;3155;49.940;8.450;2022-12-10T00:23:49;0.30;99.90
6244;DHT22;3155;49.940;8.450;2022-12-10T00:26:22;0.30;99.90
6244;DHT22;3155;49.940;8.450;2022-12-10T00:28:50;0.30;99.90
6244;DHT22;3155;49.940;8.450;2022-12-10T00:31:24;0.30;99.90
6244;DHT22;3155;49.940;8.450;2022-12-10T00:33:53;0.30;99.90
6244;DHT22;3155;49.940;8.450;2022-12-10T00:36:33;0.40;99.90
6244;DHT22;3155;49.940;8.450;2022-12-10T00:39:00;0.40;99.90
6244;DHT22;3155;49.940;8.450;2022-12-10T00:41:27;0.40;99.90
6244;DHT22;3155;49.940;8.450;2022-12-10T00:43:54;0.40;99.90
6244;DHT22;3155;49.940;8.450;2022-12-10T00:46:21;0.30;99.90
6244;DHT22;3155;49.940;8.450;2022-12-10T00:48:48;0.30;99.90
6244;DHT22;3155;49.940;8.450;2022-12-10T00:51:23;0.30;99.90
6244;DHT22;3155;49.940;8.450;2022-12-10T00:53:53;0.30;99.90
6244;DHT22;3155;49.940;8.450;2022-12-10T00:56:29;0.20;99.90
6244;DHT22;3155;49.940;8.450;2022-12-10T00:58:56;0.20;99.90
6244;DHT22;3155;49.940;8.450;2022-12-10T01:01:35;0.30;99.90
6244;DHT22;3155;49.940;8.450;2022-12-10T01:04:08;0.30;99.90
6244;DHT22;3155;49.940;8.450;2022-12-10T01:06:50;0.30;99.90
6244;DHT22;3155;49.940;8.450;2022-12-10T01:09:21;0.30;99.90
6244;DHT22;3155;49.940;8.450;2022-12-10T01:11:50;0.20;99.90
6244;DHT22;3155;49.940;8.450;2022-12-10T01:14:26;0.20;99.90
6244;DHT22;3155;49.940;8.450;2022-12-10T01:16:58;0.20;99.90
6244;DHT22;3155;49.940;8.450;2022-12-10T01:19:25;0.20;99.90
6244;DHT22;3155;49.940;8.450;2022-12-10T01:21:53;0.20;99.90
6244;DHT22;3155;49.940;8.450;2022-12-10T01:24:21;0.20;99.90
6244;DHT22;3155;49.940;8.450;2022-12-10T01:26:48;0.20;99.90
6244;DHT22;3155;49.940;8.450;2022-12-10T01:29:16;0.20;99.90
6244;DHT22;3155;49.940;8.450;2022-12-10T01:31:43;0.20;99.90
6244;DHT22;3155;49.940;8.450;2022-12-10T01:34:13;0.20;99.90
6244;DHT22;3155;49.940;8.450;2022-12-10T01:36:42;0.20;99.90
6244;DHT22;3155;49.940;8.450;2022-12-10T01:39:17;0.20;99.90
6244;DHT22;3155;49.940;8.450;2022-12-10T01:41:51;0.20;99.90
6244;DHT22;3155;49.940;8.450;2022-12-10T01:46:47;0.20;99.90
6244;DHT22;3155;49.940;8.450;2022-12-10T01:49:18;0.20;99.90
6244;DHT22;3155;49.940;8.450;2022-12-10T01:51:48;0.10;99.90
6244;DHT22;3155;49.940;8.450;2022-12-10T01:54:24;0.20;99.90
6244;DHT22;3155;49.940;8.450;2022-12-10T01:56:59;0.20;99.90
6244;DHT22;3155;49.940;8.450;2022-12-10T01:59:27;0.30;99.90
6244;DHT22;3155;49.940;8.450;2022-12-10T02:05:12;0.30;99.90
6244;DHT22;3155;49.940;8.450;2022-12-10T02:07:53;0.20;99.90
6244;DHT22;3155;49.940;8.450;2022-12-10T02:13:33;0.20;99.90
6244;DHT22;3155;49.940;8.450;2022-12-10T02:21:13;0.10;99.90
6244;DHT22;3155;49.940;8.450;2022-12-10T02:23:50;0.00;99.90
6244;DHT22;3155;49.940;8.450;2022-12-10T02:26:32;0.10;99.90
6244;DHT22;3155;49.940;8.450;2022-12-10T02:34:24;0.00;99.90
6244;DHT22;3155;49.940;8.450;2022-12-10T02:36:54;0.00;99.90
6244;DHT22;3155;49.940;8.450;2022-12-10T02:39:27;0.00;99.90
6244;DHT22;3155;49.940;8.450;2022-12-10T02:42:00;0.00;99.90
6244;DHT22;3155;49.940;8.450;2022-12-10T02:44:29;0.00;99.90
6244;DHT22;3155;49.940;8.450;2022-12-10T02:46:59;0.00;99.90
6244;DHT22;3155;49.940;8.450;2022-12-10T02:49:29;0.00;99.90
6244;DHT22;3155;49.940;8.450;2022-12-10T02:52:12;-0.10;99.90
6244;DHT22;3155;49.940;8.450;2022-12-10T02:54:40;-0.20;99.90
6244;DHT22;3155;49.940;8.450;2022-12-10T02:57:32;-0.30;99.90
6244;DHT22;3155;49.940;8.450;2022-12-10T03:13:51;-0.40;99.90
6244;DHT22;3155;49.940;8.450;2022-12-10T03:16:22;-0.40;99.90
6244;DHT22;3155;49.940;8.450;2022-12-10T03:18:56;-0.40;99.90
6244;DHT22;3155;49.940;8.450;2022-12-10T03:21:26;-0.40;99.90
6244;DHT22;3155;49.940;8.450;2022-12-10T03:23:54;-0.50;99.90
6244;DHT22;3155;49.940;8.450;2022-12-10T03:26:22;-0.50;99.90
6244;DHT22;3155;49.940;8.450;2022-12-10T03:29:09;-0.60;99.90
6244;DHT22;3155;49.940;8.450;2022-12-10T03:31:39;-0.60;99.90
6244;DHT22;3155;49.940;8.450;2022-12-10T03:34:09;-0.60;99.90
6244;DHT22;3155;49.940;8.450;2022-12-10T03:36:38;-0.50;99.90
6244;DHT22;3155;49.940;8.450;2022-12-10T03:39:06;-0.50;99.90
6244;DHT22;3155;49.940;8.450;2022-12-10T03:41:34;-0.30;99.90
6244;DHT22;3155;49.940;8.450;2022-12-10T03:44:00;-0.30;99.90
6244;DHT22;3155;49.940;8.450;2022-12-10T03:46:29;-0.20;99.90
6244;DHT22;3155;49.940;8.450;2022-12-10T03:49:03;-0.20;99.90
6244;DHT22;3155;49.940;8.450;2022-12-10T03:51:30;-0.20;99.90
6244;DHT22;3155;49.940;8.450;2022-12-10T03:53:57;-0.20;99.90
6244;DHT22;3155;49.940;8.450;2022-12-10T03:56:23;-0.20;99.90
6244;DHT22;3155;49.940;8.450;2022-12-10T03:58:50;-0.30;99.90
6244;DHT22;3155;49.940;8.450;2022-12-10T04:01:17;-0.30;99.90
6244;DHT22;3155;49.940;8.450;2022-12-10T04:03:46;-0.40;99.90
6244;DHT22;3155;49.940;8.450;2022-12-10T04:06:16;-0.50;99.90
6244;DHT22;3155;49.940;8.450;2022-12-10T04:08:47;-0.60;99.90
6244;DHT22;3155;49.940;8.450;2022-12-10T04:11:23;-0.60;99.90
6244;DHT22;3155;49.940;8.450;2022-12-10T04:13:50;-0.70;99.90
6244;DHT22;3155;49.940;8.450;2022-12-10T04:16:36;-0.80;99.90
6244;DHT22;3155;49.940;8.450;2022-12-10T04:19:13;-0.70;99.90
6244;DHT22;3155;49.940;8.450;2022-12-10T04:21:41;-0.80;99.90
6244;DHT22;3155;49.940;8.450;2022-12-10T04:24:30;-0.80;99.90
6244;DHT22;3155;49.940;8.450;2022-12-10T04:27:20;-0.80;99.90
6244;DHT22;3155;49.940;8.450;2022-12-10T04:29:51;-0.80;99.90
6244;DHT22;3155;49.940;8.450;2022-12-10T04:32:19;-0.80;99.90
6244;DHT22;3155;49.940;8.450;2022-12-10T04:34:49;-0.80;99.90
6244;DHT22;3155;49.940;8.450;2022-12-10T04:37:17;-0.80;99.90
6244;DHT22;3155;49.940;8.450;2022-12-10T04:39:44;-0.80;99.90
6244;DHT22;3155;49.940;8.450;2022-12-10T04:42:11;-0.90;99.90
6244;DHT22;3155;49.940;8.450;2022-12-10T04:44:40;-0.90;99.90
6244;DHT22;3155;49.940;8.450;2022-12-10T04:47:08;-0.90;99.90
6244;DHT22;3155;49.940;8.450;2022-12-10T04:49:35;-0.90;99.90
6244;DHT22;3155;49.940;8.450;2022-12-10T04:52:03;-1.00;99.90
6244;DHT22;3155;49.940;8.450;2022-12-10T04:54:30;-1.00;99.90
6244;DHT22;3155;49.940;8.450;2022-12-10T04:57:04;-1.00;99.90
6244;DHT22;3155;49.940;8.450;2022-12-10T04:59:31;-1.20;99.90
6244;DHT22;3155;49.940;8.450;2022-12-10T05:02:00;-1.20;99.90
6244;DHT22;3155;49.940;8.450;2022-12-10T05:04:27;-1.20;99.90
6244;DHT22;3155;49.940;8.450;2022-12-10T05:06:57;-1.20;99.90
6244;DHT22;3155;49.940;8.450;2022-12-10T05:09:24;-1.20;99.90
6244;DHT22;3155;49.940;8.450;2022-12-10T05:11:50;-1.30;99.90
6244;DHT22;3155;49.940;8.450;2022-12-10T05:14:17;-1.40;99.90
6244;DHT22;3155;49.940;8.450;2022-12-10T05:16:49;-1.40;99.90
6244;DHT22;3155;49.940;8.450;2022-12-10T05:19:17;-1.40;99.90
6244;DHT22;3155;49.940;8.450;2022-12-10T05:21:46;-1.40;99.90
6244;DHT22;3155;49.940;8.450;2022-12-10T05:24:31;-1.40;99.90
6244;DHT22;3155;49.940;8.450;2022-12-10T05:26:58;-1.40;99.90
6244;DHT22;3155;49.940;8.450;2022-12-10T05:29:28;-1.50;99.90
6244;DHT22;3155;49.940;8.450;2022-12-10T05:31:54;-1.60;99.90
6244;DHT22;3155;49.940;8.450;2022-12-10T05:34:21;-1.60;99.90
6244;DHT22;3155;49.940;8.450;2022-12-10T05:36:49;-1.70;99.90
6244;DHT22;3155;49.940;8.450;2022-12-10T05:39:16;-1.70;99.90
6244;DHT22;3155;49.940;8.450;2022-12-10T05:41:42;-1.70;99.90
6244;DHT22;3155;49.940;8.450;2022-12-10T05:44:12;-1.70;99.90
6244;DHT22;3155;49.940;8.450;2022-12-10T05:46:39;-1.70;99.90
6244;DHT22;3155;49.940;8.450;2022-12-10T05:49:07;-1.70;99.90
6244;DHT22;3155;49.940;8.450;2022-12-10T05:51:36;-1.70;99.90
6244;DHT22;3155;49.940;8.450;2022-12-10T05:54:04;-1.70;99.90
6244;DHT22;3155;49.940;8.450;2022-12-10T05:56:32;-1.80;99.90
6244;DHT22;3155;49.940;8.450;2022-12-10T05:59:01;-1.90;99.90
6244;DHT22;3155;49.940;8.450;2022-12-10T06:01:31;-2.00;99.90
6244;DHT22;3155;49.940;8.450;2022-12-10T06:04:02;-2.00;99.90
6244;DHT22;3155;49.940;8.450;2022-12-10T06:06:31;-2.10;99.90
6244;DHT22;3155;49.940;8.450;2022-12-10T06:08:58;-2.20;99.90
6244;DHT22;3155;49.940;8.450;2022-12-10T06:11:25;-2.20;99.90
6244;DHT22;3155;49.940;8.450;2022-12-10T06:13:53;-2.30;99.90
6244;DHT22;3155;49.940;8.450;2022-12-10T06:16:23;-2.40;99.90
6244;DHT22;3155;49.940;8.450;2022-12-10T06:18:50;-2.50;99.90
6244;DHT22;3155;49.940;8.450;2022-12-10T06:21:18;-2.50;99.90
6244;DHT22;3155;49.940;8.450;2022-12-10T06:23:45;-2.60;99.90
6244;DHT22;3155;49.940;8.450;2022-12-10T06:26:17;-2.70;99.90
6244;DHT22;3155;49.940;8.450;2022-12-10T06:28:45;-2.80;99.90
6244;DHT22;3155;49.940;8.450;2022-12-10T06:31:13;-2.90;99.90
6244;DHT22;3155;49.940;8.450;2022-12-10T06:33:40;-3.00;99.90
6244;DHT22;3155;49.940;8.450;2022-12-10T06:36:09;-3.10;99.90
6244;DHT22;3155;49.940;8.450;2022-12-10T06:38:36;-3.20;99.90
6244;DHT22;3155;49.940;8.450;2022-12-10T06:41:10;-3.20;99.90
6244;DHT22;3155;49.940;8.450;2022-12-10T06:43:37;-3.20;99.90
6244;DHT22;3155;49.940;8.450;2022-12-10T06:46:11;-3.20;99.90
6244;DHT22;3155;49.940;8.450;2022-12-10T06:48:38;-3.20;99.90
6244;DHT22;3155;49.940;8.450;2022-12-10T06:51:05;-3.10;99.90
6244;DHT22;3155;49.940;8.450;2022-12-10T06:53:35;-3.10;99.90
6244;DHT22;3155;49.940;8.450;2022-12-10T06:56:03;-3.10;99.90
6244;DHT22;3155;49.940;8.450;2022-12-10T06:58:32;-3.10;99.90
6244;DHT22;3155;49.940;8.450;2022-12-10T07:01:17;-3.10;99.90
6244;DHT22;3155;49.940;8.450;2022-12-10T07:03:50;-3.00;99.90
6244;DHT22;3155;49.940;8.450;2022-12-10T07:06:18;-3.00;99.90
6244;DHT22;3155;49.940;8.450;2022-12-10T07:08:46;-2.90;99.90
6244;DHT22;3155;49.940;8.450;2022-12-10T07:11:14;-2.80;99.90
6244;DHT22;3155;49.940;8.450;2022-12-10T07:13:41;-2.80;99.90
6244;DHT22;3155;49.940;8.450;2022-12-10T07:16:21;-2.80;99.90
6244;DHT22;3155;49.940;8.450;2022-12-10T07:18:49;-2.80;99.90
6244;DHT22;3155;49.940;8.450;2022-12-10T07:21:23;-2.80;99.90
6244;DHT22;3155;49.940;8.450;2022-12-10T07:23:52;-2.70;99.90
6244;DHT22;3155;49.940;8.450;2022-12-10T07:26:27;-2.60;99.90
6244;DHT22;3155;49.940;8.450;2022-12-10T07:28:54;-2.60;99.90
6244;DHT22;3155;49.940;8.450;2022-12-10T07:31:22;-2.50;99.90
6244;DHT22;3155;49.940;8.450;2022-12-10T07:33:50;-2.40;99.90
6244;DHT22;3155;49.940;8.450;2022-12-10T07:36:19;-2.30;99.90
6244;DHT22;3155;49.940;8.450;2022-12-10T07:38:46;-2.20;99.90
6244;DHT22;3155;49.940;8.450;2022-12-10T07:41:13;-2.10;99.90
6244;DHT22;3155;49.940;8.450;2022-12-10T07:43:41;-2.00;99.90
6244;DHT22;3155;49.940;8.450;2022-12-10T07:46:17;-1.90;99.90
6244;DHT22;3155;49.940;8.450;2022-12-10T07:48:45;-1.70;99.90
6244;DHT22;3155;49.940;8.450;2022-12-10T07:51:13;-1.50;99.90
6244;DHT22;3155;49.940;8.450;2022-12-10T07:53:41;-1.40;99.90
6244;DHT22;3155;49.940;8.450;2022-12-10T07:56:09;-1.30;99.90
6244;DHT22;3155;49.940;8.450;2022-12-10T07:58:36;-1.20;99.90
6244;DHT22;3155;49.940;8.450;2022-12-10T08:01:08;-1.10;99.90
6244;DHT22;3155;49.940;8.450;2022-12-10T08:03:35;-1.10;99.90
6244;DHT22;3155;49.940;8.450;2022-12-10T08:06:11;-1.10;99.90
6244;DHT22;3155;49.940;8.450;2022-12-10T08:08:40;-1.00;99.90
6244;DHT22;3155;49.940;8.450;2022-12-10T08:11:08;-1.00;99.90
6244;DHT22;3155;49.940;8.450;2022-12-10T08:13:35;-0.90;99.90
6244;DHT22;3155;49.940;8.450;2022-12-10T08:18:37;-0.90;99.90
6244;DHT22;3155;49.940;8.450;2022-12-10T08:21:12;-0.80;99.90
6244;DHT22;3155;49.940;8.450;2022-12-10T08:23:40;-0.80;99.90
6244;DHT22;3155;49.940;8.450;2022-12-10T08:26:11;-0.80;99.90
6244;DHT22;3155;49.940;8.450;2022-12-10T08:28:38;-0.70;99.90
6244;DHT22;3155;49.940;8.450;2022-12-10T08:31:06;-0.60;99.90
6244;DHT22;3155;49.940;8.450;2022-12-10T08:33:34;-0.60;99.90
6244;DHT22;3155;49.940;8.450;2022-12-10T08:36:02;-0.50;99.90
6244;DHT22;3155;49.940;8.450;2022-12-10T08:38:30;-0.40;99.90
6244;DHT22;3155;49.940;8.450;2022-12-10T08:40:57;-0.30;99.90
6244;DHT22;3155;49.940;8.450;2022-12-10T08:43:24;-0.30;99.90
6244;DHT22;3155;49.940;8.450;2022-12-10T08:45:51;-0.20;99.90
6244;DHT22;3155;49.940;8.450;2022-12-10T08:48:18;-0.10;99.90
6244;DHT22;3155;49.940;8.450;2022-12-10T08:50:47;0.00;99.90
6244;DHT22;3155;49.940;8.450;2022-12-10T08:53:13;0.10;99.90
6244;DHT22;3155;49.940;8.450;2022-12-10T08:55:54;0.20;99.90
6244;DHT22;3155;49.940;8.450;2022-12-10T08:58:21;0.30;99.90
6244;DHT22;3155;49.940;8.450;2022-12-10T09:00:49;0.30;99.90
6244;DHT22;3155;49.940;8.450;2022-12-10T09:03:16;0.50;99.90
6244;DHT22;3155;49.940;8.450;2022-12-10T09:05:43;0.60;99.90
6244;DHT22;3155;49.940;8.450;2022-12-10T09:08:13;0.60;99.90
6244;DHT22;3155;49.940;8.450;2022-12-10T09:10:40;0.70;99.90
6244;DHT22;3155;49.940;8.450;2022-12-10T09:13:07;0.80;99.90
6244;DHT22;3155;49.940;8.450;2022-12-10T09:15:34;0.80;99.90
6244;DHT22;3155;49.940;8.450;2022-12-10T09:18:01;0.80;99.90
6244;DHT22;3155;49.940;8.450;2022-12-10T09:20:27;0.90;99.90
6244;DHT22;3155;49.940;8.450;2022-12-10T09:22:54;0.90;99.90
6244;DHT22;3155;49.940;8.450;2022-12-10T09:25:21;1.10;99.90
6244;DHT22;3155;49.940;8.450;2022-12-10T09:27:48;1.30;99.90
6244;DHT22;3155;49.940;8.450;2022-12-10T09:30:15;1.30;99.90
6244;DHT22;3155;49.940;8.450;2022-12-10T09:32:42;1.40;99.90
6244;DHT22;3155;49.940;8.450;2022-12-10T09:35:09;1.50;99.90
6244;DHT22;3155;49.940;8.450;2022-12-10T09:37:36;1.60;99.90
6244;DHT22;3155;49.940;8.450;2022-12-10T09:40:03;1.70;99.90
6244;DHT22;3155;49.940;8.450;2022-12-10T09:43:00;1.70;99.90
6244;DHT22;3155;49.940;8.450;2022-12-10T09:49:13;1.90;99.90
6244;DHT22;3155;49.940;8.450;2022-12-10T09:51:45;1.90;99.90
6244;DHT22;3155;49.940;8.450;2022-12-10T09:57:21;2.10;99.90
6244;DHT22;3155;49.940;8.450;2022-12-10T09:59:52;2.20;99.90
6244;DHT22;3155;49.940;8.450;2022-12-10T10:02:26;2.20;99.90
6244;DHT22;3155;49.940;8.450;2022-12-10T10:05:12;2.00;99.90
6244;DHT22;3155;49.940;8.450;2022-12-10T10:07:53;2.00;99.90
6244;DHT22;3155;49.940;8.450;2022-12-10T10:13:11;2.00;99.90
6244;DHT22;3155;49.940;8.450;2022-12-10T10:15:41;2.00;99.90
6244;DHT22;3155;49.940;8.450;2022-12-10T10:18:15;1.90;99.90
6244;DHT22;3155;49.940;8.450;2022-12-10T10:20:45;1.80;99.90
6244;DHT22;3155;49.940;8.450;2022-12-10T10:23:14;1.80;99.90
6244;DHT22;3155;49.940;8.450;2022-12-10T10:25:42;2.00;99.90
6244;DHT22;3155;49.940;8.450;2022-12-10T10:28:16;2.00;99.90
6244;DHT22;3155;49.940;8.450;2022-12-10T10:30:44;2.20;99.90
6244;DHT22;3155;49.940;8.450;2022-12-10T10:33:13;2.30;99.90
6244;DHT22;3155;49.940;8.450;2022-12-10T10:35:54;2.40;99.90
6244;DHT22;3155;49.940;8.450;2022-12-10T10:38:26;2.80;99.90
6244;DHT22;3155;49.940;8.450;2022-12-10T10:40:56;3.00;99.90
6244;DHT22;3155;49.940;8.450;2022-12-10T10:43:59;3.20;99.90
6244;DHT22;3155;49.940;8.450;2022-12-10T10:46:27;3.30;99.90
6244;DHT22;3155;49.940;8.450;2022-12-10T10:49:13;3.40;99.90
6244;DHT22;3155;49.940;8.450;2022-12-10T10:51:44;3.60;99.90
6244;DHT22;3155;49.940;8.450;2022-12-10T10:54:11;3.60;99.90
6244;DHT22;3155;49.940;8.450;2022-12-10T10:56:56;3.50;99.90
6244;DHT22;3155;49.940;8.450;2022-12-10T10:59:31;3.30;99.90
6244;DHT22;3155;49.940;8.450;2022-12-10T11:02:15;3.00;99.90
6244;DHT22;3155;49.940;8.450;2022-12-10T11:04:51;2.80;99.90
6244;DHT22;3155;49.940;8.450;2022-12-10T11:07:24;2.70;99.90
6244;DHT22;3155;49.940;8.450;2022-12-10T11:09:53;2.70;99.90
6244;DHT22;3155;49.940;8.450;2022-12-10T11:12:33;2.80;99.90
6244;DHT22;3155;49.940;8.450;2022-12-10T11:15:01;2.90;99.90
6244;DHT22;3155;49.940;8.450;2022-12-10T11:17:28;2.90;99.90
6244;DHT22;3155;49.940;8.450;2022-12-10T11:22:53;2.70;99.90
6244;DHT22;3155;49.940;8.450;2022-12-10T11:28:05;2.50;99.90
6244;DHT22;3155;49.940;8.450;2022-12-10T11:30:42;2.50;99.90
6244;DHT22;3155;49.940;8.450;2022-12-10T11:36:21;2.70;99.90
6244;DHT22;3155;49.940;8.450;2022-12-10T11:41:53;2.60;99.90
6244;DHT22;3155;49.940;8.450;2022-12-10T11:55:38;3.00;99.90
6244;DHT22;3155;49.940;8.450;2022-12-10T11:58:39;3.00;99.90
6244;DHT22;3155;49.940;8.450;2022-12-10T12:15:02;2.80;99.90
6244;DHT22;3155;49.940;8.450;2022-12-10T12:17:36;2.90;99.90
6244;DHT22;3155;49.940;8.450;2022-12-10T12:20:27;2.90;99.90
6244;DHT22;3155;49.940;8.450;2022-12-10T12:23:02;2.80;99.90
6244;DHT22;3155;49.940;8.450;2022-12-10T12:25:35;2.60;99.90
6244;DHT22;3155;49.940;8.450;2022-12-10T12:28:14;2.50;99.90
6244;DHT22;3155;49.940;8.450;2022-12-10T12:30:45;2.50;99.90
6244;DHT22;3155;49.940;8.450;2022-12-10T12:33:24;2.70;99.90
6244;DHT22;3155;49.940;8.450;2022-12-10T12:36:03;2.90;99.90
6244;DHT22;3155;49.940;8.450;2022-12-10T12:41:31;3.00;99.90
6244;DHT22;3155;49.940;8.450;2022-12-10T12:46:47;3.20;99.90
6244;DHT22;3155;49.940;8.450;2022-12-10T12:49:24;3.30;99.90
6244;DHT22;3155;49.940;8.450;2022-12-10T12:52:02;3.30;99.90
6244;DHT22;3155;49.940;8.450;2022-12-10T12:54:29;3.20;99.90
6244;DHT22;3155;49.940;8.450;2022-12-10T13:02:59;3.10;99.90
6244;DHT22;3155;49.940;8.450;2022-12-10T13:05:38;3.30;99.90
6244;DHT22;3155;49.940;8.450;2022-12-10T13:10:56;3.90;99.90
6244;DHT22;3155;49.940;8.450;2022-12-10T13:13:36;4.00;99.90
6244;DHT22;3155;49.940;8.450;2022-12-10T13:16:35;3.80;99.90
6244;DHT22;3155;49.940;8.450;2022-12-10T13:32:43;2.70;99.90
6244;DHT22;3155;49.940;8.450;2022-12-10T13:46:33;2.70;99.90
6244;DHT22;3155;49.940;8.450;2022-12-10T13:49:02;2.70;99.90
6244;DHT22;3155;49.940;8.450;2022-12-10T13:51:50;2.60;99.90
6244;DHT22;3155;49.940;8.450;2022-12-10T13:54:38;2.60;99.90
6244;DHT22;3155;49.940;8.450;2022-12-10T13:57:34;2.50;99.90
6244;DHT22;3155;49.940;8.450;2022-12-10T14:08:28;2.10;99.90
6244;DHT22;3155;49.940;8.450;2022-12-10T14:10:58;2.00;99.90
6244;DHT22;3155;49.940;8.450;2022-12-10T14:13:43;1.80;99.90
6244;DHT22;3155;49.940;8.450;2022-12-10T14:16:13;1.60;99.90
6244;DHT22;3155;49.940;8.450;2022-12-10T14:18:48;1.40;99.90
6244;DHT22;3155;49.940;8.450;2022-12-10T14:21:16;1.30;99.90
6244;DHT22;3155;49.940;8.450;2022-12-10T14:23:48;1.10;99.90
6244;DHT22;3155;49.940;8.450;2022-12-10T14:26:28;1.00;99.90
6244;DHT22;3155;49.940;8.450;2022-12-10T14:29:00;0.90;99.90
6244;DHT22;3155;49.940;8.450;2022-12-10T14:31:43;0.80;99.90
6244;DHT22;3155;49.940;8.450;2022-12-10T14:34:13;0.60;99.90
6244;DHT22;3155;49.940;8.450;2022-12-10T14:36:49;0.50;99.90
6244;DHT22;3155;49.940;8.450;2022-12-10T14:39:21;0.40;99.90
6244;DHT22;3155;49.940;8.450;2022-12-10T14:41:56;0.30;99.90
6244;DHT22;3155;49.940;8.450;2022-12-10T14:44:27;0.30;99.90
6244;DHT22;3155;49.940;8.450;2022-12-10T14:47:10;0.20;99.90
6244;DHT22;3155;49.940;8.450;2022-12-10T14:49:43;0.20;99.90
6244;DHT22;3155;49.940;8.450;2022-12-10T14:52:15;0.30;99.90
6244;DHT22;3155;49.940;8.450;2022-12-10T14:54:45;0.20;99.90
6244;DHT22;3155;49.940;8.450;2022-12-10T14:57:17;0.20;99.90
6244;DHT22;3155;49.940;8.450;2022-12-10T15:02:29;0.20;99.90
6244;DHT22;3155;49.940;8.450;2022-12-10T15:04:57;0.20;99.90
6244;DHT22;3155;49.940;8.450;2022-12-10T15:07:26;0.20;99.90
6244;DHT22;3155;49.940;8.450;2022-12-10T15:09:54;0.30;99.90
6244;DHT22;3155;49.940;8.450;2022-12-10T15:12:44;0.30;99.90
6244;DHT22;3155;49.940;8.450;2022-12-10T15:15:41;0.30;99.90
6244;DHT22;3155;49.940;8.450;2022-12-10T15:18:12;0.30;99.90
6244;DHT22;3155;49.940;8.450;2022-12-10T15:20:46;0.30;99.90
6244;DHT22;3155;49.940;8.450;2022-12-10T15:28:37;0.10;99.90
6244;DHT22;3155;49.940;8.450;2022-12-10T15:33:58;-0.10;99.90
6244;DHT22;3155;49.940;8.450;2022-12-10T15:36:48;-0.10;99.90
6244;DHT22;3155;49.940;8.450;2022-12-10T15:41:49;-0.20;99.90
6244;DHT22;3155;49.940;8.450;2022-12-10T15:44:39;-0.20;99.90
6244;DHT22;3155;49.940;8.450;2022-12-10T15:47:25;-0.30;99.90
6244;DHT22;3155;49.940;8.450;2022-12-10T15:49:54;-0.40;99.90
6244;DHT22;3155;49.940;8.450;2022-12-10T15:52:29;-0.40;99.90
6244;DHT22;3155;49.940;8.450;2022-12-10T15:54:57;-0.50;99.90
6244;DHT22;3155;49.940;8.450;2022-12-10T15:57:35;-0.50;99.90
6244;DHT22;3155;49.940;8.450;2022-12-10T16:00:08;-0.50;99.90
6244;DHT22;3155;49.940;8.450;2022-12-10T16:02:53;-0.60;99.90
6244;DHT22;3155;49.940;8.450;2022-12-10T16:07:58;-0.70;99.90
6244;DHT22;3155;49.940;8.450;2022-12-10T16:10:27;-0.70;99.90
6244;DHT22;3155;49.940;8.450;2022-12-10T16:13:06;-0.70;99.90
6244;DHT22;3155;49.940;8.450;2022-12-10T16:16:00;-0.80;99.90
6244;DHT22;3155;49.940;8.450;2022-12-10T16:18:27;-0.70;99.90
6244;DHT22;3155;49.940;8.450;2022-12-10T16:20:59;-0.70;99.90
6244;DHT22;3155;49.940;8.450;2022-12-10T16:23:26;-0.70;99.90
6244;DHT22;3155;49.940;8.450;2022-12-10T16:25:53;-0.70;99.90
6244;DHT22;3155;49.940;8.450;2022-12-10T16:28:23;-0.80;99.90
6244;DHT22;3155;49.940;8.450;2022-12-10T16:30:52;-0.80;99.90
6244;DHT22;3155;49.940;8.450;2022-12-10T16:33:21;-0.80;99.90
6244;DHT22;3155;49.940;8.450;2022-12-10T16:35:50;-0.90;99.90
6244;DHT22;3155;49.940;8.450;2022-12-10T16:38:18;-0.90;99.90
6244;DHT22;3155;49.940;8.450;2022-12-10T16:40:46;-1.00;99.90
6244;DHT22;3155;49.940;8.450;2022-12-10T16:43:21;-1.00;99.90
6244;DHT22;3155;49.940;8.450;2022-12-10T16:45:49;-1.10;99.90
6244;DHT22;3155;49.940;8.450;2022-12-10T16:48:17;-1.20;99.90
6244;DHT22;3155;49.940;8.450;2022-12-10T16:50:45;-1.30;99.90
6244;DHT22;3155;49.940;8.450;2022-12-10T16:55:48;-1.40;99.90
6244;DHT22;3155;49.940;8.450;2022-12-10T16:58:15;-1.40;99.90
6244;DHT22;3155;49.940;8.450;2022-12-10T17:00:47;-1.40;99.90
6244;DHT22;3155;49.940;8.450;2022-12-10T17:03:24;-1.40;99.90
6244;DHT22;3155;49.940;8.450;2022-12-10T17:05:59;-1.50;99.90
6244;DHT22;3155;49.940;8.450;2022-12-10T17:08:27;-1.60;99.90
6244;DHT22;3155;49.940;8.450;2022-12-10T17:10:56;-1.80;99.90
6244;DHT22;3155;49.940;8.450;2022-12-10T17:13:43;-1.80;99.90
6244;DHT22;3155;49.940;8.450;2022-12-10T17:16:20;-1.90;99.90
6244;DHT22;3155;49.940;8.450;2022-12-10T17:18:51;-1.90;99.90
6244;DHT22;3155;49.940;8.450;2022-12-10T17:21:20;-2.00;99.90
6244;DHT22;3155;49.940;8.450;2022-12-10T17:23:51;-2.00;99.90
6244;DHT22;3155;49.940;8.450;2022-12-10T17:26:25;-2.00;99.90
6244;DHT22;3155;49.940;8.450;2022-12-10T17:28:56;-2.10;99.90
6244;DHT22;3155;49.940;8.450;2022-12-10T17:31:26;-2.10;99.90
6244;DHT22;3155;49.940;8.450;2022-12-10T17:33:53;-2.10;99.90
6244;DHT22;3155;49.940;8.450;2022-12-10T17:36:27;-2.10;99.90
6244;DHT22;3155;49.940;8.450;2022-12-10T17:38:54;-2.10;99.90
6244;DHT22;3155;49.940;8.450;2022-12-10T17:41:20;-2.20;99.90
6244;DHT22;3155;49.940;8.450;2022-12-10T17:43:47;-2.20;99.90
6244;DHT22;3155;49.940;8.450;2022-12-10T17:46:17;-2.30;99.90
6244;DHT22;3155;49.940;8.450;2022-12-10T17:48:45;-2.30;99.90
6244;DHT22;3155;49.940;8.450;2022-12-10T17:51:12;-2.40;99.90
6244;DHT22;3155;49.940;8.450;2022-12-10T17:53:40;-2.40;99.90
6244;DHT22;3155;49.940;8.450;2022-12-10T17:56:23;-2.50;99.90
6244;DHT22;3155;49.940;8.450;2022-12-10T17:58:52;-2.60;99.90
6244;DHT22;3155;49.940;8.450;2022-12-10T18:01:20;-2.70;99.90
6244;DHT22;3155;49.940;8.450;2022-12-10T18:03:47;-2.70;99.90
6244;DHT22;3155;49.940;8.450;2022-12-10T18:06:19;-2.80;99.90
6244;DHT22;3155;49.940;8.450;2022-12-10T18:08:48;-2.90;99.90
6244;DHT22;3155;49.940;8.450;2022-12-10T18:11:19;-3.00;99.90
6244;DHT22;3155;49.940;8.450;2022-12-10T18:13:46;-3.00;99.90
6244;DHT22;3155;49.940;8.450;2022-12-10T18:16:19;-3.10;99.90
6244;DHT22;3155;49.940;8.450;2022-12-10T18:18:47;-3.20;99.90
6244;DHT22;3155;49.940;8.450;2022-12-10T18:21:16;-3.40;99.90
6244;DHT22;3155;49.940;8.450;2022-12-10T18:23:43;-3.60;99.90
6244;DHT22;3155;49.940;8.450;2022-12-10T18:26:14;-3.80;99.90
6244;DHT22;3155;49.940;8.450;2022-12-10T18:28:47;-4.00;99.90
6244;DHT22;3155;49.940;8.450;2022-12-10T18:31:21;-4.20;99.90
6244;DHT22;3155;49.940;8.450;2022-12-10T18:33:53;-4.30;99.90
6244;DHT22;3155;49.940;8.450;2022-12-10T18:36:23;-4.40;99.90
6244;DHT22;3155;49.940;8.450;2022-12-10T18:38:52;-4.50;99.90
6244;DHT22;3155;49.940;8.450;2022-12-10T18:41:19;-4.50;99.90
6244;DHT22;3155;49.940;8.450;2022-12-10T18:43:51;-4.50;99.90
6244;DHT22;3155;49.940;8.450;2022-12-10T18:46:24;-4.50;99.90
6244;DHT22;3155;49.940;8.450;2022-12-10T18:48:52;-4.50;99.90
6244;DHT22;3155;49.940;8.450;2022-12-10T18:51:21;-4.40;99.90
6244;DHT22;3155;49.940;8.450;2022-12-10T18:53:49;-4.30;99.90
6244;DHT22;3155;49.940;8.450;2022-12-10T18:56:23;-4.20;99.90
6244;DHT22;3155;49.940;8.450;2022-12-10T18:58:50;-4.20;99.90
6244;DHT22;3155;49.940;8.450;2022-12-10T19:01:20;-4.30;99.90
6244;DHT22;3155;49.940;8.450;2022-12-10T19:03:55;-4.50;99.90
6244;DHT22;3155;49.940;8.450;2022-12-10T19:06:27;-4.70;99.90